Time;durP1;ratioP1;P1;durP2;ratioP2;P2;SDS_P1;SDS_P2;PMS_P1;PMS_P2;Temp;Humidity;BMP_temperature;BMP_pressure;BME280_temperature;BME280_humidity;BME280_pressure;Samples;Min_cycle;Max_cycle;Signal;HPM_P1;HPM_P2
2022/06/11 00:00:05;;;;;;;29.33;20.14;;;;;;;;;;357759;148;866187;-63
2022/06/11 00:01:07;;;;;;;34.14;20.31;;;;;;;;;;354723;150;859138;-63
2022/06/11 00:02:10;;;;;;;32.57;20.28;;;;;;;;;;357826;148;858165;-63
2022/06/11 00:03:12;;;;;;;31.03;20.17;;;;;;;;;;354421;150;857344;-63
2022/06/11 00:04:16;;;;;;;30.64;20.01;;;;;;;;;;355678;147;865016;-63
2022/06/11 00:05:17;;;;;;;33.56;21.06;;;;;;;;;;357307;148;857318;-63
2022/06/11 00:06:19;;;;;;;32.12;20.69;;;;;;;;;;359275;148;857422;-63
2022/06/11 00:07:22;;;;;;;31.29;20.39;;;;;;;;;;358829;147;857211;-62
2022/06/11 00:08:25;;;;;;;32.17;21.01;;;;;;;;;;358758;148;858774;-63
2022/06/11 00:09:27;;;;;;;31.17;20.84;;;;;;;;;;358005;147;867033;-63
2022/06/11 00:10:29;;;;;;;33.83;21.59;;;;;;;;;;359350;147;857248;-63
2022/06/11 00:11:30;;;;;;;32.22;20.25;;;;;;;;;;359877;147;866249;-63
2022/06/11 00:12:32;;;;;;;35.78;20.73;;;;;;;;;;358734;147;864292;-63
2022/06/11 00:13:33;;;;;;;28.89;19.67;;;;;;;;;;360212;147;857281;-63
2022/06/11 00:14:35;;;;;;;33.06;20.29;;;;;;;;;;356786;147;864929;-63
2022/06/11 00:15:37;;;;;;;32.04;20.14;;;;;;;;;;359328;147;857313;-63
2022/06/11 00:16:38;;;;;;;30.51;19.77;;;;;;;;;;360507;147;858760;-63
2022/06/11 00:17:40;;;;;;;30.55;19.81;;;;;;;;;;358102;148;857905;-63
2022/06/11 00:18:42;;;;;;;26.91;18.98;;;;;;;;;;362042;147;857302;-63
2022/06/11 00:19:43;;;;;;;29.01;19.05;;;;;;;;;;354920;150;858179;-63
2022/06/11 00:20:45;;;;;;;31.14;19.99;;;;;;;;;;359104;147;857257;-63
2022/06/11 00:21:47;;;;;;;30.42;19.76;;;;;;;;;;359404;147;866776;-63
2022/06/11 00:22:49;;;;;;;28.83;20.28;;;;;;;;;;359632;147;859892;-63
2022/06/11 00:23:50;;;;;;;28.45;19.94;;;;;;;;;;359191;147;856932;-63
2022/06/11 00:24:52;;;;;;;28.24;19.45;;;;;;;;;;356663;147;858975;-63
2022/06/11 00:25:55;;;;;;;28.80;19.45;;;;;;;;;;358117;147;859088;-63
2022/06/11 00:26:57;;;;;;;31.41;19.76;;;;;;;;;;359573;147;864843;-63
2022/06/11 00:27:59;;;;;;;27.91;19.50;;;;;;;;;;359076;147;857326;-63
2022/06/11 00:29:00;;;;;;;32.09;19.49;;;;;;;;;;355863;148;865675;-64
2022/06/11 00:30:03;;;;;;;28.18;19.28;;;;;;;;;;356832;147;864975;-63
2022/06/11 00:31:05;;;;;;;30.50;19.31;;;;;;;;;;358071;147;868604;-63
2022/06/11 00:32:07;;;;;;;30.60;19.04;;;;;;;;;;359000;147;857288;-63
2022/06/11 00:33:08;;;;;;;31.73;19.54;;;;;;;;;;359157;147;865894;-63
2022/06/11 00:34:10;;;;;;;29.84;20.10;;;;;;;;;;359230;147;859557;-63
2022/06/11 00:35:12;;;;;;;27.08;19.21;;;;;;;;;;359755;147;857531;-63
2022/06/11 00:36:16;;;;;;;26.73;19.27;;;;;;;;;;358914;148;865711;-63
2022/06/11 00:37:18;;;;;;;35.42;20.86;;;;;;;;;;356284;147;857333;-63
2022/06/11 00:38:19;;;;;;;30.29;20.72;;;;;;;;;;356103;147;857453;-63
2022/06/11 00:39:22;;;;;;;31.60;20.71;;;;;;;;;;357585;150;858320;-63
2022/06/11 00:40:25;;;;;;;32.88;21.50;;;;;;;;;;360203;147;857793;-62
2022/06/11 00:41:27;;;;;;;30.34;20.49;;;;;;;;;;358689;147;857217;-63
2022/06/11 00:42:29;;;;;;;28.59;20.51;;;;;;;;;;359047;147;857283;-63
2022/06/11 00:43:31;;;;;;;33.52;21.94;;;;;;;;;;359259;147;857730;-63
2022/06/11 00:44:32;;;;;;;31.10;21.39;;;;;;;;;;358470;147;857293;-65
2022/06/11 00:45:35;;;;;;;32.29;21.68;;;;;;;;;;359351;147;857590;-64
2022/06/11 00:46:56;;;;;;;32.43;21.16;;;;;;;;;;356220;147;865117;-63
2022/06/11 00:48:00;;;;;;;36.57;23.04;;;;;;;;;;349045;150;865771;-62
2022/06/11 00:49:02;;;;;;;33.51;22.07;;;;;;;;;;350684;150;859004;-63
2022/06/11 00:50:05;;;;;;;32.38;21.17;;;;;;;;;;345916;155;864850;-63
2022/06/11 00:51:11;;;;;;;31.24;20.66;;;;;;;;;;351163;152;857873;-63
2022/06/11 00:52:18;;;;;;;33.85;22.03;;;;;;;;;;351617;153;859271;-63
2022/06/11 00:53:24;;;;;;;31.06;21.84;;;;;;;;;;352053;150;857202;-63
2022/06/11 00:54:26;;;;;;;31.62;22.73;;;;;;;;;;351644;150;857175;-64
2022/06/11 00:55:31;;;;;;;32.62;21.89;;;;;;;;;;352234;152;856625;-62
2022/06/11 00:56:35;;;;;;;32.78;21.76;;;;;;;;;;351406;153;865357;-63
2022/06/11 00:57:38;;;;;;;33.48;21.68;;;;;;;;;;353429;150;859480;-63
2022/06/11 00:58:41;;;;;;;33.95;21.77;;;;;;;;;;352457;150;859862;-64
2022/06/11 00:59:44;;;;;;;33.79;21.63;;;;;;;;;;351430;150;857369;-63
2022/06/11 01:00:53;;;;;;;37.88;21.96;;;;;;;;;;348547;153;857498;-63
2022/06/11 01:01:55;;;;;;;32.38;20.89;;;;;;;;;;351963;152;858099;-62
2022/06/11 01:02:57;;;;;;;33.91;21.59;;;;;;;;;;351711;150;857167;-62
2022/06/11 01:03:59;;;;;;;31.68;21.51;;;;;;;;;;350300;150;857229;-63
2022/06/11 01:05:01;;;;;;;35.39;22.11;;;;;;;;;;351800;152;865607;-63
2022/06/11 01:06:17;;;;;;;30.37;21.01;;;;;;;;;;351418;150;857037;-63
2022/06/11 01:07:32;;;;;;;38.65;22.81;;;;;;;;;;349752;152;856399;-64
2022/06/11 01:08:36;;;;;;;34.85;22.25;;;;;;;;;;351804;153;857190;-65
2022/06/11 01:09:45;;;;;;;32.72;21.69;;;;;;;;;;351284;152;857317;-65
2022/06/11 01:10:49;;;;;;;35.13;22.08;;;;;;;;;;346872;152;857447;-63
2022/06/11 01:12:10;;;;;;;28.79;21.26;;;;;;;;;;351730;152;860122;-65
2022/06/11 01:13:13;;;;;;;34.18;21.97;;;;;;;;;;350805;152;857257;-63
2022/06/11 01:14:16;;;;;;;31.52;21.40;;;;;;;;;;351573;153;857901;-63
2022/06/11 01:15:20;;;;;;;29.10;20.96;;;;;;;;;;350953;150;856638;-63
2022/06/11 01:16:42;;;;;;;32.71;21.05;;;;;;;;;;346390;155;857269;-63
2022/06/11 01:18:04;;;;;;;31.79;21.03;;;;;;;;;;351605;152;860212;-62
2022/06/11 01:19:23;;;;;;;31.19;21.08;;;;;;;;;;351772;150;858096;-64
2022/06/11 01:20:30;;;;;;;27.04;20.00;;;;;;;;;;350762;150;860241;-63
2022/06/11 01:21:33;;;;;;;31.48;21.03;;;;;;;;;;350503;152;857655;-63
2022/06/11 01:22:37;;;;;;;34.40;21.72;;;;;;;;;;351835;152;857344;-63
2022/06/11 01:23:43;;;;;;;36.64;20.66;;;;;;;;;;353404;152;858190;-63
2022/06/11 01:24:55;;;;;;;30.31;20.63;;;;;;;;;;351934;153;858426;-63
2022/06/11 01:26:16;;;;;;;30.39;20.87;;;;;;;;;;351747;152;857259;-64
2022/06/11 01:27:20;;;;;;;31.55;21.33;;;;;;;;;;351453;152;857191;-63
2022/06/11 01:28:26;;;;;;;34.06;22.06;;;;;;;;;;351745;152;857408;-63
2022/06/11 01:29:46;;;;;;;32.23;21.74;;;;;;;;;;351867;152;857140;-63
2022/06/11 01:30:56;;;;;;;35.63;21.87;;;;;;;;;;351185;150;857291;-64
2022/06/11 01:32:00;;;;;;;30.21;21.51;;;;;;;;;;349941;152;857160;-63
2022/06/11 01:33:07;;;;;;;42.11;21.82;;;;;;;;;;350202;150;858631;-63
2022/06/11 01:34:12;;;;;;;30.66;20.97;;;;;;;;;;351741;152;857790;-64
2022/06/11 01:35:31;;;;;;;32.32;20.67;;;;;;;;;;350805;151;857344;-62
2022/06/11 01:36:37;;;;;;;28.63;20.12;;;;;;;;;;352238;150;857239;-63
2022/06/11 01:37:47;;;;;;;33.03;21.02;;;;;;;;;;348543;150;857415;-63
2022/06/11 01:38:59;;;;;;;33.61;20.99;;;;;;;;;;352052;152;860246;-62
2022/06/11 01:40:05;;;;;;;34.14;21.56;;;;;;;;;;351768;152;857319;-63
2022/06/11 01:41:24;;;;;;;29.92;20.91;;;;;;;;;;349778;152;857546;-63
2022/06/11 01:42:44;;;;;;;29.64;20.65;;;;;;;;;;352064;153;858932;-63
2022/06/11 01:43:46;;;;;;;30.60;21.01;;;;;;;;;;350685;150;859470;-63
2022/06/11 01:44:50;;;;;;;28.45;20.53;;;;;;;;;;350636;152;857954;-63
2022/06/11 01:45:51;;;;;;;32.34;20.94;;;;;;;;;;350301;152;857639;-63
2022/06/11 01:46:53;;;;;;;31.81;21.34;;;;;;;;;;351317;150;857265;-63
2022/06/11 01:47:55;;;;;;;29.49;20.55;;;;;;;;;;350477;152;868427;-63
2022/06/11 01:48:58;;;;;;;28.10;20.34;;;;;;;;;;346163;155;858605;-63
2022/06/11 01:50:00;;;;;;;32.09;20.57;;;;;;;;;;346971;154;864965;-63
2022/06/11 01:51:03;;;;;;;34.74;20.68;;;;;;;;;;348190;154;857225;-63
2022/06/11 01:52:07;;;;;;;30.08;20.21;;;;;;;;;;347279;154;858791;-63
2022/06/11 01:53:13;;;;;;;36.64;21.53;;;;;;;;;;347719;154;858963;-63
2022/06/11 01:54:19;;;;;;;32.63;21.29;;;;;;;;;;347923;154;864856;-64
2022/06/11 01:55:25;;;;;;;31.84;21.71;;;;;;;;;;347575;154;857316;-64
2022/06/11 01:56:32;;;;;;;36.78;20.88;;;;;;;;;;347093;154;858107;-63
2022/06/11 01:57:38;;;;;;;31.50;19.88;;;;;;;;;;345444;154;856462;-63
2022/06/11 01:58:59;;;;;;;29.17;20.26;;;;;;;;;;347473;154;857321;-64
2022/06/11 02:00:14;;;;;;;29.69;20.58;;;;;;;;;;346571;154;858805;-64
2022/06/11 02:01:21;;;;;;;30.66;21.20;;;;;;;;;;346945;154;857291;-64
2022/06/11 02:02:33;;;;;;;35.02;21.57;;;;;;;;;;347104;154;856474;-63
2022/06/11 02:03:43;;;;;;;32.90;21.41;;;;;;;;;;347436;154;857215;-64
2022/06/11 02:04:49;;;;;;;34.30;21.76;;;;;;;;;;347046;154;858051;-63
2022/06/11 02:05:56;;;;;;;38.35;21.51;;;;;;;;;;345104;154;857240;-64
2022/06/11 02:07:08;;;;;;;34.79;19.93;;;;;;;;;;335266;154;856748;-64
2022/06/11 02:08:15;;;;;;;33.17;21.74;;;;;;;;;;345333;154;856227;-64
2022/06/11 02:09:25;;;;;;;38.77;21.88;;;;;;;;;;347648;154;856416;-63
2022/06/11 02:10:38;;;;;;;34.58;21.59;;;;;;;;;;348256;154;856227;-64
2022/06/11 02:11:43;;;;;;;35.37;22.44;;;;;;;;;;347835;154;856288;-65
2022/06/11 02:12:53;;;;;;;35.68;21.59;;;;;;;;;;346162;154;856724;-64
2022/06/11 02:13:56;;;;;;;40.24;21.25;;;;;;;;;;346887;154;856678;-65
2022/06/11 02:15:00;;;;;;;32.33;21.69;;;;;;;;;;345456;154;856258;-64
2022/06/11 02:16:06;;;;;;;35.78;21.48;;;;;;;;;;347476;154;856317;-64
2022/06/11 02:17:10;;;;;;;37.68;21.37;;;;;;;;;;346755;154;863635;-64
2022/06/11 02:18:13;;;;;;;34.10;20.82;;;;;;;;;;347420;154;857548;-66
2022/06/11 02:19:17;;;;;;;34.76;20.60;;;;;;;;;;346803;154;856392;-65
2022/06/11 02:20:21;;;;;;;35.44;22.14;;;;;;;;;;348020;154;856349;-64
2022/06/11 02:21:25;;;;;;;34.31;23.01;;;;;;;;;;348038;154;856226;-64
2022/06/11 02:22:29;;;;;;;34.34;21.82;;;;;;;;;;346369;154;856214;-64
2022/06/11 02:23:38;;;;;;;36.29;22.05;;;;;;;;;;347507;154;857392;-64
2022/06/11 02:24:44;;;;;;;33.45;21.76;;;;;;;;;;347185;154;863608;-62
2022/06/11 02:27:35;;;;;;;30.68;20.23;;;;;;;15.66;59.76;99765.48;371379;142;868614;-63
2022/06/11 02:28:39;;;;;;;38.67;21.45;;;;;;;15.57;60.21;99774.45;364307;147;858178;-63
2022/06/11 02:29:41;;;;;;;34.75;21.66;;;;;;;15.58;60.21;99776.16;365300;147;857745;-62
2022/06/11 02:30:44;;;;;;;31.29;20.97;;;;;;;15.60;60.16;99774.35;364729;147;857351;-62
2022/06/11 02:31:52;;;;;;;34.67;22.51;;;;;;;15.58;60.16;99775.31;365992;145;859020;-62
2022/06/11 02:32:55;;;;;;;33.47;21.42;;;;;;;15.59;60.61;99772.64;360025;147;857404;-64
2022/06/11 02:33:57;;;;;;;36.91;22.18;;;;;;;15.62;60.34;99769.94;364957;147;858954;-63
2022/06/11 02:35:01;;;;;;;34.83;21.19;;;;;;;15.62;60.27;99771.70;356403;147;860153;-63
2022/06/11 02:36:07;;;;;;;36.88;21.82;;;;;;;15.61;60.77;99772.61;355898;150;857287;-63
2022/06/11 02:37:12;;;;;;;34.09;21.58;;;;;;;15.66;60.95;99780.28;359944;147;864747;-63
2022/06/11 02:38:16;;;;;;;40.58;22.03;;;;;;;15.70;60.52;99774.06;357720;148;857491;-63
2022/06/11 02:39:17;;;;;;;38.69;22.19;;;;;;;15.67;60.33;99771.55;357877;147;857838;-63
2022/06/11 02:40:23;;;;;;;34.08;21.24;;;;;;;15.67;60.33;99771.55;363346;147;858044;-63
2022/06/11 02:41:29;;;;;;;40.96;22.97;;;;;;;15.59;60.66;99783.08;365415;147;858465;-61
2022/06/11 02:42:31;;;;;;;37.39;22.72;;;;;;;15.62;59.94;99782.98;354570;149;857261;-63
2022/06/11 02:43:33;;;;;;;39.24;22.86;;;;;;;15.62;60.21;99774.31;358242;147;857293;-64
2022/06/11 02:44:35;;;;;;;35.75;22.45;;;;;;;15.60;60.22;99779.57;366250;147;857292;-62
2022/06/11 02:45:37;;;;;;;37.98;22.15;;;;;;;15.58;60.28;99785.75;360915;147;858843;-62
2022/06/11 02:46:41;;;;;;;36.25;22.30;;;;;;;15.63;60.97;99782.08;358873;149;857869;-62
2022/06/11 02:47:44;;;;;;;37.75;23.46;;;;;;;15.72;60.93;99788.78;354665;150;859029;-62
2022/06/11 02:48:45;;;;;;;38.33;23.36;;;;;;;15.78;60.66;99783.36;354026;149;860246;-62
2022/06/11 02:49:47;;;;;;;42.61;23.09;;;;;;;15.84;60.17;99781.45;357213;150;857770;-63
2022/06/11 02:50:49;;;;;;;39.33;22.66;;;;;;;15.88;60.10;99783.09;358411;148;865315;-63
2022/06/11 02:51:53;;;;;;;36.83;23.11;;;;;;;15.89;60.09;99783.03;357969;149;857947;-62
2022/06/11 02:52:56;;;;;;;36.36;22.56;;;;;;;15.95;60.02;99775.93;356613;149;857434;-64
2022/06/11 02:53:58;;;;;;;34.75;22.25;;;;;;;16.03;60.36;99785.20;358296;149;857138;-63
2022/06/11 02:55:00;;;;;;;37.65;22.81;;;;;;;16.07;60.49;99783.36;358884;149;857356;-63
2022/06/11 02:56:02;;;;;;;40.43;22.40;;;;;;;16.12;60.28;99775.34;357686;150;859541;-62
2022/06/11 02:57:05;;;;;;;42.75;22.60;;;;;;;16.12;60.28;99775.34;357857;149;857296;-64
2022/06/11 02:58:08;;;;;;;36.01;21.70;;;;;;;16.25;60.34;99781.86;359261;149;858176;-62
2022/06/11 02:59:10;;;;;;;40.99;21.96;;;;;;;16.36;60.56;99779.73;359023;150;859797;-63
2022/06/11 03:00:15;;;;;;;36.95;21.69;;;;;;;16.42;59.99;99777.81;358124;149;856370;-64
2022/06/11 03:01:17;;;;;;;37.39;22.09;;;;;;;16.44;60.18;99781.25;358414;148;857409;-66
2022/06/11 03:02:20;;;;;;;38.62;21.72;;;;;;;16.46;60.23;99780.28;357383;149;857772;-71
2022/06/11 03:03:23;;;;;;;36.01;22.37;;;;;;;16.49;60.40;99779.33;355042;149;857286;-64
2022/06/11 03:04:26;;;;;;;39.25;22.71;;;;;;;16.56;60.07;99782.56;357888;142;857280;-61
2022/06/11 03:05:29;;;;;;;38.19;22.21;;;;;;;16.56;60.07;99782.56;355385;149;857106;-63
2022/06/11 03:06:31;;;;;;;36.11;21.42;;;;;;;16.54;59.67;99785.25;358615;147;856350;-63
2022/06/11 03:07:33;;;;;;;36.00;22.56;;;;;;;16.54;59.63;99779.16;351485;152;859462;-63
2022/06/11 03:08:35;;;;;;;33.61;22.21;;;;;;;;;;350973;151;857410;-62
2022/06/11 03:09:36;;;;;;;34.89;20.51;;;;;;;;;;358414;150;865430;-64
2022/06/11 03:10:38;;;;;;;36.94;22.09;;;;;;;;;;357147;147;859699;-68
2022/06/11 03:11:40;;;;;;;32.87;20.85;;;;;;;;;;358503;148;856185;-63
2022/06/11 03:12:41;;;;;;;34.41;21.59;;;;;;;;;;358157;147;856212;-67
2022/06/11 03:13:43;;;;;;;38.36;22.49;;;;;;;;;;353753;150;864016;-62
2022/06/11 03:14:45;;;;;;;37.47;22.10;;;;;;;;;;357564;150;856596;-69
2022/06/11 03:15:47;;;;;;;34.50;21.54;;;;;;;;;;358177;147;856181;-63
2022/06/11 03:16:48;;;;;;;33.84;21.94;;;;;;;;;;358601;147;863709;-65
2022/06/11 03:17:50;;;;;;;34.00;21.73;;;;;;;;;;358884;148;863316;-69
2022/06/11 03:18:51;;;;;;;34.41;22.36;;;;;;;;;;357210;150;856111;-66
2022/06/11 03:19:53;;;;;;;29.77;20.36;;;;;;;;;;355196;150;863592;-68
2022/06/11 03:20:55;;;;;;;31.64;21.60;;;;;;;;;;358041;150;856851;-64
2022/06/11 03:21:56;;;;;;;33.54;21.49;;;;;;;;;;359860;148;863815;-66
2022/06/11 03:22:58;;;;;;;32.04;20.65;;;;;;;;;;358705;147;856657;-69
2022/06/11 03:24:00;;;;;;;31.39;20.79;;;;;;;;;;358070;147;857796;-60
2022/06/11 03:25:01;;;;;;;36.05;22.15;;;;;;;;;;358536;147;856221;-64
2022/06/11 03:26:03;;;;;;;33.27;20.95;;;;;;;;;;357088;147;856193;-63
2022/06/11 03:27:05;;;;;;;33.46;21.20;;;;;;;;;;356441;150;863501;-63
2022/06/11 03:28:07;;;;;;;34.24;21.23;;;;;;;;;;357313;150;863346;-63
2022/06/11 03:29:09;;;;;;;33.27;21.91;;;;;;;;;;356467;149;863766;-69
2022/06/11 03:30:11;;;;;;;34.22;21.09;;;;;;;;;;358501;150;856567;-59
2022/06/11 03:31:14;;;;;;;32.02;20.89;;;;;;;;;;357857;150;856779;-60
2022/06/11 03:32:15;;;;;;;30.64;20.87;;;;;;;;;;357947;149;856384;-66
2022/06/11 03:33:17;;;;;;;37.46;20.59;;;;;;;;;;359106;149;856447;-64
2022/06/11 03:34:18;;;;;;;31.67;20.90;;;;;;;;;;355752;149;857038;-65
2022/06/11 03:35:20;;;;;;;34.56;21.12;;;;;;;;;;356721;150;856369;-62
2022/06/11 03:36:22;;;;;;;35.20;20.90;;;;;;;;;;357921;149;856189;-62
2022/06/11 03:37:24;;;;;;;32.31;21.61;;;;;;;;;;359084;150;863604;-69
2022/06/11 03:38:25;;;;;;;36.59;21.40;;;;;;;;;;356372;150;857907;-67
2022/06/11 03:39:27;;;;;;;33.38;20.78;;;;;;;;;;355386;148;857209;-64
2022/06/11 03:40:29;;;;;;;31.79;21.61;;;;;;;;;;358202;150;864783;-67
2022/06/11 03:41:31;;;;;;;33.06;20.73;;;;;;;;;;359780;148;857239;-66
2022/06/11 03:42:33;;;;;;;35.03;19.83;;;;;;;;;;358486;147;859177;-66
2022/06/11 03:43:34;;;;;;;32.71;20.87;;;;;;;;;;357278;148;857272;-67
2022/06/11 03:44:36;;;;;;;32.55;20.81;;;;;;;;;;357916;150;857287;-60
2022/06/11 03:45:38;;;;;;;31.51;19.97;;;;;;;;;;357711;148;859542;-58
2022/06/11 03:46:39;;;;;;;33.01;20.65;;;;;;;;;;358450;150;857273;-59
2022/06/11 03:47:41;;;;;;;37.30;20.34;;;;;;;;;;357588;150;859391;-60
2022/06/11 03:48:42;;;;;;;34.86;20.34;;;;;;;;;;358737;148;857267;-58
2022/06/11 03:49:44;;;;;;;32.15;19.96;;;;;;;;;;357880;147;858949;-58
2022/06/11 03:50:45;;;;;;;33.24;20.52;;;;;;;;;;357885;147;865199;-58
2022/06/11 03:51:47;;;;;;;30.48;19.33;;;;;;;;;;357078;150;857266;-57
2022/06/11 03:52:48;;;;;;;29.16;19.98;;;;;;;;;;357868;150;860430;-57
2022/06/11 03:53:50;;;;;;;29.46;19.24;;;;;;;;;;357490;149;857412;-57
2022/06/11 03:54:54;;;;;;;29.35;18.79;;;;;;;;;;357208;148;856513;-58
2022/06/11 03:55:55;;;;;;;28.35;19.02;;;;;;;;;;354408;148;858701;-60
2022/06/11 03:56:57;;;;;;;25.50;18.51;;;;;;;;;;357305;148;858918;-60
2022/06/11 03:57:59;;;;;;;27.46;18.74;;;;;;;;;;357307;149;865119;-61
2022/06/11 03:59:01;;;;;;;30.92;18.49;;;;;;;;;;358809;148;859028;-60
2022/06/11 04:00:03;;;;;;;27.74;18.46;;;;;;;;;;354167;148;858226;-59
2022/06/11 04:01:19;;;;;;;29.57;19.53;;;;;;;;;;358995;148;865048;-59
2022/06/11 04:02:20;;;;;;;29.68;18.14;;;;;;;;;;358732;149;857351;-60
2022/06/11 04:03:22;;;;;;;29.00;18.81;;;;;;;;;;358093;150;859318;-58
2022/06/11 04:04:24;;;;;;;28.76;18.97;;;;;;;;;;358600;147;864961;-56
2022/06/11 04:05:25;;;;;;;28.26;18.72;;;;;;;;;;357432;150;864878;-57
2022/06/11 04:06:30;;;;;;;31.54;19.62;;;;;;;;;;352507;149;858898;-55
2022/06/11 04:07:32;;;;;;;29.65;19.35;;;;;;;;;;357754;147;859362;-57
2022/06/11 04:08:33;;;;;;;31.74;19.56;;;;;;;;;;357622;150;865118;-58
2022/06/11 04:09:36;;;;;;;29.61;18.85;;;;;;;;;;358169;149;865165;-56
2022/06/11 04:10:38;;;;;;;26.31;18.12;;;;;;;;;;358184;149;866325;-59
2022/06/11 04:11:40;;;;;;;30.52;18.76;;;;;;;;;;358514;150;857748;-59
2022/06/11 04:12:41;;;;;;;26.97;18.49;;;;;;;;;;357830;150;864933;-58
2022/06/11 04:13:43;;;;;;;29.28;18.88;;;;;;;;;;358684;149;857337;-57
2022/06/11 04:14:45;;;;;;;28.76;18.07;;;;;;;;;;356634;147;859445;-59
2022/06/11 04:15:46;;;;;;;27.90;19.65;;;;;;;;;;355832;149;864959;-57
2022/06/11 04:16:50;;;;;;;32.36;19.19;;;;;;;;;;352919;149;857331;-58
2022/06/11 04:17:52;;;;;;;28.12;17.96;;;;;;;;;;356236;148;866572;-57
2022/06/11 04:18:54;;;;;;;26.46;17.89;;;;;;;;;;358662;148;857275;-59
2022/06/11 04:19:56;;;;;;;29.57;18.90;;;;;;;;;;356256;148;857321;-58
2022/06/11 04:20:58;;;;;;;26.96;18.74;;;;;;;;;;356044;149;857760;-57
2022/06/11 04:22:00;;;;;;;30.72;19.29;;;;;;;;;;356487;150;865986;-57
2022/06/11 04:23:01;;;;;;;29.53;18.56;;;;;;;;;;354010;149;857296;-57
2022/06/11 04:24:04;;;;;;;32.24;19.71;;;;;;;;;;354813;148;858992;-58
2022/06/11 04:25:06;;;;;;;27.76;18.31;;;;;;;;;;356893;147;859177;-56
2022/06/11 04:26:09;;;;;;;31.26;19.18;;;;;;;;;;357783;150;856439;-58
2022/06/11 04:27:11;;;;;;;31.12;19.80;;;;;;;;;;358017;148;857587;-57
2022/06/11 04:28:14;;;;;;;28.40;17.92;;;;;;;;;;355355;147;865126;-58
2022/06/11 04:29:16;;;;;;;29.52;18.84;;;;;;;;;;356747;147;861605;-56
2022/06/11 04:30:19;;;;;;;25.76;17.86;;;;;;;;;;356726;148;864107;-57
2022/06/11 04:31:22;;;;;;;28.76;18.45;;;;;;;;;;356668;150;856575;-59
2022/06/11 04:32:24;;;;;;;24.55;17.68;;;;;;;;;;357872;150;857306;-57
2022/06/11 04:33:25;;;;;;;31.60;19.02;;;;;;;;;;356913;150;859809;-58
2022/06/11 04:34:27;;;;;;;27.79;17.74;;;;;;;;;;356462;147;864929;-58
2022/06/11 04:35:29;;;;;;;28.46;18.94;;;;;;;;;;356303;150;866777;-57
2022/06/11 04:36:31;;;;;;;24.95;18.16;;;;;;;;;;353698;149;864980;-58
2022/06/11 04:37:33;;;;;;;27.72;19.01;;;;;;;;;;354030;150;864873;-58
2022/06/11 04:38:34;;;;;;;29.92;18.99;;;;;;;;;;357480;150;857284;-58
2022/06/11 04:39:36;;;;;;;27.31;18.67;;;;;;;;;;356880;150;865868;-60
2022/06/11 04:40:38;;;;;;;29.84;18.71;;;;;;;;;;357783;149;865472;-59
2022/06/11 04:41:39;;;;;;;26.95;18.50;;;;;;;;;;358080;150;866899;-58
2022/06/11 04:42:41;;;;;;;30.75;17.88;;;;;;;;;;357512;148;864980;-58
2022/06/11 04:43:42;;;;;;;26.25;18.02;;;;;;;;;;358891;147;858200;-59
2022/06/11 04:44:45;;;;;;;25.74;18.14;;;;;;;;;;351186;152;857293;-58
2022/06/11 04:45:46;;;;;;;30.14;18.23;;;;;;;;;;349721;150;856536;-58
2022/06/11 04:46:48;;;;;;;28.63;18.85;;;;;;;;;;358472;150;857397;-59
2022/06/11 04:47:50;;;;;;;25.47;17.89;;;;;;;;;;356350;149;866847;-59
2022/06/11 04:48:52;;;;;;;25.17;17.11;;;;;;;;;;358057;150;857360;-58
2022/06/11 04:49:54;;;;;;;27.54;17.30;;;;;;;;;;353442;150;858305;-57
2022/06/11 04:50:55;;;;;;;28.70;17.71;;;;;;;;;;357423;148;857331;-58
2022/06/11 04:51:57;;;;;;;24.64;17.60;;;;;;;;;;358562;150;859005;-58
2022/06/11 04:52:59;;;;;;;29.17;17.69;;;;;;;;;;359175;148;864876;-58
2022/06/11 04:54:00;;;;;;;28.12;17.66;;;;;;;;;;358589;150;857311;-58
2022/06/11 04:55:02;;;;;;;26.64;17.31;;;;;;;;;;358474;150;865183;-64
2022/06/11 04:56:04;;;;;;;25.70;16.79;;;;;;;;;;358113;147;856239;-59
2022/06/11 04:57:05;;;;;;;25.77;15.99;;;;;;;;;;357670;150;864054;-60
2022/06/11 04:58:07;;;;;;;24.27;15.39;;;;;;;;;;357362;149;856564;-60
2022/06/11 04:59:08;;;;;;;23.75;15.41;;;;;;;;;;358930;149;856601;-61
2022/06/11 05:00:12;;;;;;;24.65;15.65;;;;;;;;;;359328;147;863896;-61
2022/06/11 05:01:14;;;;;;;27.01;16.19;;;;;;;;;;355031;148;856565;-62
2022/06/11 05:02:16;;;;;;;24.11;15.46;;;;;;;;;;358696;150;856546;-59
2022/06/11 05:03:18;;;;;;;24.45;15.31;;;;;;;;;;357677;148;863987;-60
2022/06/11 05:04:20;;;;;;;24.19;13.79;;;;;;;;;;357387;149;858299;-60
2022/06/11 05:05:21;;;;;;;22.92;14.14;;;;;;;;;;358346;149;857710;-62
2022/06/11 05:06:25;;;;;;;23.74;14.29;;;;;;;;;;358983;150;863657;-60
2022/06/11 05:07:27;;;;;;;24.76;14.17;;;;;;;;;;355571;149;863604;-61
2022/06/11 05:08:28;;;;;;;20.35;13.37;;;;;;;;;;357387;150;856297;-70
2022/06/11 05:09:30;;;;;;;19.25;13.46;;;;;;;;;;356612;147;863772;-59
2022/06/11 05:10:34;;;;;;;20.25;13.45;;;;;;;;;;358238;148;856306;-61
2022/06/11 05:11:36;;;;;;;19.85;13.12;;;;;;;;;;358640;150;856420;-63
2022/06/11 05:12:37;;;;;;;24.91;13.03;;;;;;;;;;353871;149;864137;-64
2022/06/11 05:13:39;;;;;;;21.68;11.67;;;;;;;;;;357822;149;863812;-68
2022/06/11 05:14:40;;;;;;;16.20;10.81;;;;;;;;;;355881;148;856383;-61
2022/06/11 05:15:43;;;;;;;17.41;10.59;;;;;;;;;;357939;150;856902;-60
2022/06/11 05:16:45;;;;;;;16.13;10.01;;;;;;;;;;358447;148;863480;-60
2022/06/11 05:17:47;;;;;;;13.89;9.86;;;;;;;;;;358995;148;856317;-63
2022/06/11 05:18:49;;;;;;;18.04;11.11;;;;;;;;;;350859;152;856491;-62
2022/06/11 05:19:51;;;;;;;12.93;8.88;;;;;;;;;;350864;150;856326;-62
2022/06/11 05:20:52;;;;;;;12.09;8.01;;;;;;;;;;357243;147;863823;-60
2022/06/11 05:21:54;;;;;;;14.06;7.69;;;;;;;;;;359260;147;863753;-63
2022/06/11 05:22:56;;;;;;;19.14;7.49;;;;;;;;;;358685;150;863700;-64
2022/06/11 05:23:58;;;;;;;13.71;7.99;;;;;;;;;;358488;150;857222;-64
2022/06/11 05:24:59;;;;;;;15.04;7.56;;;;;;;;;;358427;148;865506;-63
2022/06/11 05:26:01;;;;;;;16.79;7.82;;;;;;;;;;356912;147;856525;-63
2022/06/11 05:27:06;;;;;;;12.74;7.11;;;;;;;;;;358661;150;857374;-62
2022/06/11 05:28:08;;;;;;;13.51;7.39;;;;;;;;;;357551;150;857631;-63
2022/06/11 05:29:10;;;;;;;16.05;7.77;;;;;;;;;;360691;139;857411;-62
2022/06/11 05:30:15;;;;;;;14.56;6.77;;;;;;;;;;363394;145;857475;-62
2022/06/11 05:31:17;;;;;;;15.03;7.28;;;;;;;;;;363655;145;857390;-62
2022/06/11 05:32:19;;;;;;;15.64;7.44;;;;;;;;;;362650;145;857431;-64
2022/06/11 05:33:21;;;;;;;21.57;6.93;;;;;;;;;;359580;146;856869;-63
2022/06/11 05:34:22;;;;;;;11.76;6.43;;;;;;;;;;360167;147;857261;-62
2022/06/11 05:35:25;;;;;;;10.84;5.74;;;;;;;;;;354002;151;859077;-63
2022/06/11 05:36:27;;;;;;;11.68;6.23;;;;;;;;;;352649;151;857327;-63
2022/06/11 05:37:28;;;;;;;10.69;5.96;;;;;;;;;;362024;147;857298;-63
2022/06/11 05:38:30;;;;;;;10.31;5.56;;;;;;;;;;359100;146;858965;-62
2022/06/11 05:39:31;;;;;;;7.41;5.53;;;;;;;;;;356039;149;857303;-63
2022/06/11 05:40:35;;;;;;;9.19;5.21;;;;;;;;;;361952;146;857376;-63
2022/06/11 05:41:37;;;;;;;8.28;4.76;;;;;;;;;;361285;146;866208;-63
2022/06/11 05:42:39;;;;;;;13.11;5.10;;;;;;;;;;355052;149;858258;-63
2022/06/11 05:43:41;;;;;;;8.07;4.44;;;;;;;;;;360503;146;864951;-62
2022/06/11 05:44:43;;;;;;;12.79;4.56;;;;;;;;;;357102;148;858770;-64
2022/06/11 05:45:46;;;;;;;9.19;5.04;;;;;;;;;;362066;146;857536;-63
2022/06/11 05:46:48;;;;;;;9.12;4.61;;;;;;;;;;354371;151;858294;-63
2022/06/11 05:47:50;;;;;;;11.19;5.26;;;;;;;;;;357532;149;857397;-62
2022/06/11 05:48:53;;;;;;;8.65;4.79;;;;;;;;;;352811;150;864901;-62
2022/06/11 05:49:57;;;;;;;9.36;4.65;;;;;;;;;;355398;149;865177;-63
2022/06/11 05:50:59;;;;;;;12.03;4.50;;;;;;;;;;354934;149;859569;-63
2022/06/11 05:52:02;;;;;;;10.60;4.83;;;;;;;;;;356030;148;857340;-62
2022/06/11 05:53:03;;;;;;;9.65;4.37;;;;;;;;;;355768;151;865716;-64
2022/06/11 05:54:06;;;;;;;12.21;4.66;;;;;;;;;;351686;151;857435;-63
2022/06/11 05:55:08;;;;;;;13.13;5.05;;;;;;;;;;353241;148;859105;-61
2022/06/11 05:56:11;;;;;;;11.24;4.72;;;;;;;;;;347693;153;866046;-61